createdAt,value
2019-05-20T00:01:22.021Z,98971.86
2019-05-20T00:04:25.498Z,98962.91
2019-05-20T00:07:28.992Z,98961.23
2019-05-20T00:10:32.502Z,98961.58
2019-05-20T00:13:36.021Z,98951.95
2019-05-20T00:16:41.554Z,98948.95
2019-05-20T00:19:45.065Z,98940.14
2019-05-20T00:22:50.600Z,98945.11
2019-05-20T00:25:54.100Z,98944.97
2019-05-20T00:28:58.630Z,98941.47
2019-05-20T00:32:02.165Z,98947.26
2019-05-20T00:35:07.741Z,98944.27
2019-05-20T00:38:11.074Z,98940.28
2019-05-20T00:41:14.675Z,98943.93
2019-05-20T00:44:20.103Z,98945.94
2019-05-20T00:47:24.564Z,98943.93
2019-05-20T00:50:28.053Z,98941.61
2019-05-20T00:53:31.548Z,98934.98
2019-05-20T00:56:36.287Z,98933.80
2019-05-20T00:59:39.714Z,98933.80
2019-05-20T01:02:56.092Z,98931.65
2019-05-20T01:05:49.496Z,98939.61
2019-05-20T01:08:52.958Z,98932.61
2019-05-20T01:11:57.594Z,98935.77
2019-05-20T01:15:01.193Z,98929.95
2019-05-20T01:18:05.700Z,98938.91
2019-05-20T01:21:09.355Z,98937.92
2019-05-20T01:24:12.927Z,98936.25
2019-05-20T01:27:16.407Z,98942.60
2019-05-20T01:30:20.938Z,98928.77
2019-05-20T01:33:24.434Z,98926.11
2019-05-20T01:36:28.968Z,98920.33
2019-05-20T01:39:33.514Z,98917.67
2019-05-20T01:42:36.989Z,98911.66
2019-05-20T01:45:40.518Z,98915.02
2019-05-20T01:48:48.290Z,98919.63
2019-05-20T01:51:53.838Z,98924.64
2019-05-20T01:54:59.387Z,98919.00
2019-05-20T01:58:03.918Z,98913.36
2019-05-20T02:01:07.417Z,98916.01
2019-05-20T02:04:11.950Z,98916.83
2019-05-20T02:07:15.442Z,98911.52
2019-05-20T02:10:18.948Z,98906.72
2019-05-20T02:13:24.079Z,98901.89
2019-05-20T02:16:27.980Z,98911.18
2019-05-20T02:19:31.494Z,98912.03
2019-05-20T02:22:36.172Z,98901.05
2019-05-20T02:25:39.734Z,98897.06
2019-05-20T02:28:45.277Z,98898.38
2019-05-20T02:31:49.815Z,98893.22
2019-05-20T02:34:53.289Z,98892.27
2019-05-20T02:37:56.811Z,98879.13
2019-05-20T02:41:00.314Z,98881.28
2019-05-20T02:44:03.804Z,98878.14
2019-05-20T02:47:09.379Z,98872.64
2019-05-20T02:50:13.896Z,98870.66
2019-05-20T02:53:18.412Z,98868.52
2019-05-20T02:56:21.900Z,98867.67
2019-05-20T02:59:26.418Z,98867.19
2019-05-20T03:02:30.964Z,98862.70
2019-05-20T03:05:36.502Z,98864.53
2019-05-20T03:08:39.984Z,98863.83
2019-05-20T03:11:43.503Z,98872.98
2019-05-20T03:14:47.009Z,98874.78
2019-05-20T03:17:50.502Z,98871.17
2019-05-20T03:20:54.019Z,98867.81
2019-05-20T03:23:57.511Z,98868.15
2019-05-20T03:27:03.083Z,98870.47
2019-05-20T03:30:07.298Z,98866.16
2019-05-20T03:33:10.881Z,98869.48
2019-05-20T03:36:16.420Z,98872.64
2019-05-20T03:39:19.924Z,98866.16
2019-05-20T03:42:23.434Z,98870.98
2019-05-20T03:45:26.930Z,98874.11
2019-05-20T03:48:31.458Z,98875.78
2019-05-20T03:51:35.978Z,98881.09
2019-05-20T03:54:39.477Z,98881.23
2019-05-20T03:57:42.980Z,98876.29
2019-05-20T04:00:47.326Z,98872.45
2019-05-20T04:03:50.825Z,98868.47
2019-05-20T04:06:54.303Z,98872.31
2019-05-20T04:09:57.819Z,98867.14
2019-05-20T04:13:01.312Z,98868.80
2019-05-20T04:16:04.825Z,98869.43
2019-05-20T04:19:09.346Z,98873.41
2019-05-20T04:22:12.835Z,98874.59
2019-05-20T04:25:17.357Z,98875.44
2019-05-20T04:28:20.878Z,98869.80
2019-05-20T04:31:24.355Z,98874.59
2019-05-20T04:34:27.869Z,98877.76
2019-05-20T04:37:31.392Z,98865.45
2019-05-20T04:40:35.944Z,98869.66
2019-05-20T04:43:40.408Z,98872.45
2019-05-20T04:46:43.915Z,98867.81
2019-05-20T04:49:50.509Z,98865.81
2019-05-20T04:52:55.021Z,98858.19
2019-05-20T04:55:58.513Z,98856.86
2019-05-20T04:59:02.022Z,98859.18
2019-05-20T05:02:05.423Z,98858.19
2019-05-20T05:05:09.022Z,98858.19
2019-05-20T05:08:12.532Z,98862.50
2019-05-20T05:11:16.020Z,98855.53
2019-05-20T05:14:19.531Z,98859.85
2019-05-20T05:17:31.214Z,98866.16
2019-05-20T05:20:37.782Z,98866.48
2019-05-20T05:23:41.317Z,98867.81
2019-05-20T05:26:47.666Z,98866.48
2019-05-20T05:29:49.977Z,98868.80
2019-05-20T05:32:53.436Z,98863.36
2019-05-20T05:35:56.924Z,98859.85
2019-05-20T05:39:01.453Z,98865.50
2019-05-20T05:42:06.998Z,98859.85
2019-05-20T05:45:11.863Z,98857.53
2019-05-20T05:48:15.608Z,98860.55
2019-05-20T05:51:19.205Z,98863.69
2019-05-20T05:54:22.692Z,98868.52
2019-05-20T05:57:26.140Z,98862.36
2019-05-20T06:00:29.674Z,98844.63
2019-05-20T06:03:33.143Z,98843.64
2019-05-20T06:06:36.648Z,98842.79
2019-05-20T06:09:41.176Z,98843.78
2019-05-20T06:12:44.669Z,98840.14
2019-05-20T06:15:50.283Z,98845.44
2019-05-20T06:18:53.728Z,98859.23
2019-05-20T06:21:58.411Z,98850.61
2019-05-20T06:25:03.401Z,98853.92
2019-05-20T06:28:07.091Z,98851.59
2019-05-20T06:31:12.642Z,98854.25
2019-05-20T06:34:16.154Z,98851.45
2019-05-20T06:37:21.285Z,98846.00
2019-05-20T06:40:24.784Z,98844.39
2019-05-20T06:43:28.326Z,98837.75
2019-05-20T06:46:31.807Z,98843.25
2019-05-20T06:49:35.327Z,98839.45
2019-05-20T06:52:38.993Z,98847.93
2019-05-20T06:55:43.531Z,98848.12
2019-05-20T06:58:47.014Z,98847.27
2019-05-20T07:01:50.572Z,98849.78
2019-05-20T07:04:54.048Z,98853.77
2019-05-20T07:08:01.166Z,98858.45
2019-05-20T07:11:03.908Z,98852.77
2019-05-20T07:14:07.408Z,98853.14
2019-05-20T07:17:10.923Z,98847.17
2019-05-20T07:20:14.666Z,98850.53
2019-05-20T07:23:18.300Z,98853.85
2019-05-20T07:26:22.053Z,98846.88
2019-05-20T07:29:25.794Z,98848.39
2019-05-20T07:32:29.444Z,98853.56
2019-05-20T07:35:33.188Z,98848.25
2019-05-20T07:38:36.641Z,98845.95
2019-05-20T07:41:41.592Z,98839.32
2019-05-20T07:44:46.515Z,98832.69
2019-05-20T07:47:50.011Z,98830.70
2019-05-20T07:50:53.499Z,98832.39
2019-05-20T07:53:57.302Z,98826.42
2019-05-20T07:57:03.353Z,98821.59
2019-05-20T08:00:07.359Z,98821.11
2019-05-20T08:03:10.779Z,98833.53
2019-05-20T08:06:15.305Z,98827.74
2019-05-20T08:09:19.849Z,98833.91
2019-05-20T08:12:23.323Z,98834.23
2019-05-20T08:15:26.831Z,98832.58
2019-05-20T08:18:31.356Z,98827.27
2019-05-20T08:21:34.862Z,98829.41
2019-05-20T08:24:38.375Z,98835.09
2019-05-20T08:27:41.860Z,98833.24
2019-05-20T08:30:45.495Z,98834.72
2019-05-20T08:33:49.077Z,98839.88
2019-05-20T08:36:52.571Z,98837.73
2019-05-20T08:39:56.552Z,98842.05
2019-05-20T08:42:59.972Z,98841.91
2019-05-20T08:46:03.503Z,98841.20
2019-05-20T08:49:10.911Z,98847.37
2019-05-20T08:52:12.358Z,98855.19
2019-05-20T08:55:15.849Z,98847.37
2019-05-20T08:58:19.451Z,98849.03
2019-05-20T09:01:23.038Z,98854.34
2019-05-20T09:04:26.913Z,98851.69
2019-05-20T09:07:30.454Z,98845.41
2019-05-20T09:10:34.150Z,98851.39
2019-05-20T09:13:37.657Z,98843.42
2019-05-20T09:16:41.170Z,98847.41
2019-05-20T09:19:47.114Z,98839.77
2019-05-20T09:22:50.032Z,98839.14
2019-05-20T09:25:53.512Z,98839.48
2019-05-20T09:28:58.183Z,98832.50
2019-05-20T09:32:01.732Z,98827.89
2019-05-20T09:35:06.838Z,98828.56
2019-05-20T09:38:20.086Z,98825.91
2019-05-20T09:41:15.746Z,98828.56
2019-05-20T09:44:19.309Z,98830.88
2019-05-20T09:47:22.808Z,98821.59
2019-05-20T09:50:27.452Z,98830.22
2019-05-20T09:53:32.027Z,98834.20
2019-05-20T09:56:35.495Z,98832.55
2019-05-20T09:59:43.721Z,98831.55
2019-05-20T10:02:46.172Z,98825.75
2019-05-20T10:05:50.727Z,98813.66
2019-05-20T10:08:54.197Z,98814.98
2019-05-20T10:11:59.328Z,98817.16
2019-05-20T10:15:02.954Z,98825.61
2019-05-20T10:18:06.580Z,98813.98
2019-05-20T10:21:10.063Z,98816.31
2019-05-20T10:24:14.559Z,98809.19
2019-05-20T10:27:20.110Z,98813.02
2019-05-20T10:30:23.625Z,98804.36
2019-05-20T10:33:27.112Z,98803.36
2019-05-20T10:36:30.617Z,98806.38
2019-05-20T10:39:34.114Z,98806.02
2019-05-20T10:42:38.653Z,98797.23
2019-05-20T10:45:42.205Z,98807.02
2019-05-20T10:48:45.670Z,98799.89
2019-05-20T10:51:49.156Z,98803.03
2019-05-20T10:54:52.646Z,98810.66
2019-05-20T10:57:56.139Z,98816.31
2019-05-20T11:01:03.660Z,98815.98
2019-05-20T11:04:08.882Z,98828.27
2019-05-20T11:07:13.415Z,98821.29
2019-05-20T11:10:16.935Z,98824.09
2019-05-20T11:13:20.425Z,98835.53
2019-05-20T11:16:23.916Z,98836.56
2019-05-20T11:19:27.458Z,98844.90
2019-05-20T11:22:31.973Z,98851.03
2019-05-20T11:25:35.559Z,98861.02
2019-05-20T11:28:39.145Z,98853.39
2019-05-20T11:31:42.658Z,98847.23
2019-05-20T11:34:47.395Z,98833.95
2019-05-20T11:37:52.983Z,98832.13
2019-05-20T11:40:56.463Z,98835.97
2019-05-20T11:44:00.986Z,98836.30
2019-05-20T11:47:04.578Z,98846.30
2019-05-20T11:50:09.300Z,98844.64
2019-05-20T11:53:12.907Z,98839.66
2019-05-20T11:56:18.771Z,98835.52
2019-05-20T11:59:21.529Z,98837.34
2019-05-20T12:02:25.022Z,98831.69
2019-05-20T12:05:28.418Z,98834.34
2019-05-20T12:08:32.073Z,98831.06
2019-05-20T12:11:35.525Z,98830.70
2019-05-20T12:14:39.044Z,98829.03
2019-05-20T12:17:42.542Z,98827.55
2019-05-20T12:20:50.076Z,98827.08
2019-05-20T12:23:53.670Z,98830.36
2019-05-20T12:26:57.125Z,98833.35
2019-05-20T12:30:04.044Z,98826.70
2019-05-20T12:33:18.596Z,98821.77
2019-05-20T12:36:12.986Z,98819.10
2019-05-20T12:39:16.479Z,98819.47
2019-05-20T12:42:20.080Z,98818.14
2019-05-20T12:45:23.702Z,98812.83
2019-05-20T12:48:28.256Z,98811.83
2019-05-20T12:51:37.641Z,98806.19
2019-05-20T12:54:42.271Z,98796.37
2019-05-20T12:57:45.867Z,98795.05
2019-05-20T13:00:50.497Z,98786.92
2019-05-20T13:03:54.018Z,98790.58
2019-05-20T13:06:57.598Z,98781.61
2019-05-20T13:10:03.149Z,98775.81
2019-05-20T13:13:06.443Z,98773.64
2019-05-20T13:16:09.965Z,98771.12
2019-05-20T13:19:14.490Z,98769.59
2019-05-20T13:22:19.035Z,98761.83
2019-05-20T13:25:22.501Z,98764.13
2019-05-20T13:28:26.038Z,98759.95
2019-05-20T13:31:29.626Z,98756.30
2019-05-20T13:34:33.228Z,98755.82
2019-05-20T13:37:36.724Z,98753.64
2019-05-20T13:40:46.292Z,98753.64
2019-05-20T13:43:45.581Z,98756.67
2019-05-20T13:46:49.064Z,98750.84
2019-05-20T13:49:52.566Z,98758.69
2019-05-20T13:52:57.083Z,98751.20
2019-05-20T13:56:02.649Z,98751.72
2019-05-20T13:59:06.250Z,98755.04
2019-05-20T14:02:10.651Z,98764.70
2019-05-20T14:05:14.206Z,98784.62
2019-05-20T14:08:18.679Z,98806.52
2019-05-20T14:11:33.744Z,98812.16
2019-05-20T14:14:27.317Z,98808.17
2019-05-20T14:17:30.827Z,98806.84
2019-05-20T14:20:35.354Z,98805.52
2019-05-20T14:23:38.895Z,98803.23
2019-05-20T14:26:42.367Z,98800.57
2019-05-20T14:29:45.856Z,98801.05
2019-05-20T14:32:50.399Z,98805.52
2019-05-20T14:35:53.892Z,98814.48
2019-05-20T14:38:57.377Z,98823.16
2019-05-20T14:42:00.879Z,98820.50
2019-05-20T14:45:04.438Z,98811.53
2019-05-20T14:48:07.904Z,98813.70
2019-05-20T14:51:11.394Z,98803.56
2019-05-20T14:54:14.883Z,98807.06
2019-05-20T14:57:18.449Z,98805.22
2019-05-20T15:00:22.928Z,98800.57
2019-05-20T15:03:27.462Z,98804.41
2019-05-20T15:06:30.950Z,98796.28
2019-05-20T15:09:35.463Z,98800.91
2019-05-20T15:12:39.048Z,98798.94
2019-05-20T15:15:42.503Z,98801.90
2019-05-20T15:18:45.961Z,98800.91
2019-05-20T15:21:49.477Z,98795.92
2019-05-20T15:24:52.980Z,98796.28
2019-05-20T15:27:56.481Z,98790.97
2019-05-20T15:31:02.142Z,98795.92
2019-05-20T15:34:05.519Z,98797.95
2019-05-20T15:37:09.038Z,98797.09
2019-05-20T15:40:12.560Z,98797.61
2019-05-20T15:43:17.061Z,98791.30
2019-05-20T15:46:22.679Z,98794.29
2019-05-20T15:49:26.505Z,98794.59
2019-05-20T15:52:31.058Z,98793.56
2019-05-20T15:55:34.546Z,98795.89
2019-05-20T15:58:39.196Z,98789.87
2019-05-20T16:01:42.769Z,98798.55
2019-05-20T16:04:46.281Z,98794.56
2019-05-20T16:07:49.792Z,98799.55
2019-05-20T16:10:53.262Z,98818.14
2019-05-20T16:13:56.792Z,98817.08
2019-05-20T16:17:00.286Z,98811.77
2019-05-20T16:20:09.019Z,98821.39
2019-05-20T16:23:19.362Z,98813.94
2019-05-20T16:26:24.634Z,98808.77
2019-05-20T16:29:28.145Z,98806.12
2019-05-20T16:32:31.700Z,98797.78
2019-05-20T16:35:35.368Z,98795.49
2019-05-20T16:38:39.006Z,98792.62
2019-05-20T16:41:42.710Z,98794.09
2019-05-20T16:44:46.355Z,98798.59
2019-05-20T16:47:51.456Z,98799.77
2019-05-20T16:50:55.151Z,98798.74
2019-05-20T16:53:58.682Z,98800.41
2019-05-20T16:57:02.167Z,98796.42
2019-05-20T17:00:14.713Z,98794.09
2019-05-20T17:03:12.066Z,98801.25
2019-05-20T17:06:15.538Z,98800.08
2019-05-20T17:09:19.056Z,98793.95
2019-05-20T17:12:23.570Z,98787.13
2019-05-20T17:15:27.082Z,98785.80
2019-05-20T17:18:30.589Z,98791.44
2019-05-20T17:21:34.079Z,98795.76
2019-05-20T17:24:37.600Z,98802.03
2019-05-20T17:27:41.099Z,98792.73
2019-05-20T17:30:46.033Z,98797.90
2019-05-20T17:33:49.715Z,98792.73
2019-05-20T17:36:53.211Z,98787.78
2019-05-20T17:39:56.728Z,98790.92
2019-05-20T17:43:01.238Z,98787.94
2019-05-20T17:46:04.755Z,98789.41
2019-05-20T17:49:08.331Z,98785.77
2019-05-20T17:52:11.946Z,98787.42
2019-05-20T17:55:15.449Z,98793.09
2019-05-20T17:58:19.991Z,98787.09
2019-05-20T18:01:24.653Z,98788.42
2019-05-20T18:04:28.215Z,98784.10
2019-05-20T18:07:31.745Z,98782.41
2019-05-20T18:10:35.227Z,98782.08
2019-05-20T18:13:38.749Z,98775.44
2019-05-20T18:16:42.224Z,98780.75
2019-05-20T18:19:45.736Z,98777.28
2019-05-20T18:22:49.208Z,98775.44
2019-05-20T18:25:52.730Z,98776.43
2019-05-20T18:28:56.231Z,98768.46
2019-05-20T18:31:59.725Z,98768.13
2019-05-20T18:35:04.324Z,98773.77
2019-05-20T18:38:07.964Z,98778.61
2019-05-20T18:41:11.463Z,98782.73
2019-05-20T18:44:14.980Z,98770.78
2019-05-20T18:47:18.494Z,98771.75
2019-05-20T18:50:21.964Z,98764.44
2019-05-20T18:53:25.479Z,98763.12
2019-05-20T18:56:28.987Z,98767.10
2019-05-20T18:59:32.446Z,98778.69
2019-05-20T19:02:38.049Z,98779.05
2019-05-20T19:05:42.539Z,98784.36
2019-05-20T19:08:46.095Z,98787.05
2019-05-20T19:11:49.533Z,98796.53
2019-05-20T19:14:54.059Z,98798.05
2019-05-20T19:17:57.573Z,98794.42
2019-05-20T19:21:02.098Z,98799.08
2019-05-20T19:24:05.599Z,98807.08
2019-05-20T19:27:09.076Z,98806.12
2019-05-20T19:30:12.583Z,98814.75
2019-05-20T19:33:16.351Z,98815.48
2019-05-20T19:36:19.824Z,98823.09
2019-05-20T19:42:40.198Z,98835.74
2019-05-20T19:45:43.786Z,98832.23
2019-05-20T19:48:48.329Z,98828.17
2019-05-20T19:51:51.821Z,98828.50
2019-05-20T19:54:56.360Z,98830.83
2019-05-20T19:58:01.882Z,98826.51
2019-05-20T20:01:05.400Z,98818.54
2019-05-20T20:04:08.897Z,98819.23
2019-05-20T20:07:12.410Z,98817.91
2019-05-20T20:10:15.899Z,98816.09
2019-05-20T20:13:19.391Z,98811.59
2019-05-20T20:16:22.897Z,98813.28
2019-05-20T20:19:26.393Z,98803.73
2019-05-20T20:22:29.913Z,98808.88
2019-05-20T20:25:33.432Z,98807.21
2019-05-20T20:28:37.920Z,98803.86
2019-05-20T20:31:41.473Z,98800.36
2019-05-20T20:34:45.174Z,98800.36
2019-05-20T20:37:48.633Z,98796.52
2019-05-20T20:40:52.137Z,98790.51
2019-05-20T20:43:55.621Z,98787.00
2019-05-20T20:46:59.043Z,98795.82
2019-05-20T20:50:06.429Z,98796.82
2019-05-20T20:53:09.843Z,98796.45
2019-05-20T20:56:24.822Z,98797.12
2019-05-20T20:59:18.482Z,98797.45
2019-05-20T21:02:21.930Z,98783.47
2019-05-20T21:05:25.353Z,98787.27
2019-05-20T21:08:28.774Z,98783.80
2019-05-20T21:11:32.284Z,98786.09
2019-05-20T21:14:36.782Z,98791.07
2019-05-20T21:17:41.229Z,98796.39
2019-05-20T21:20:44.672Z,98797.38
2019-05-20T21:23:48.120Z,98789.27
2019-05-20T21:26:52.717Z,98790.38
2019-05-20T21:29:57.364Z,98798.53
2019-05-20T21:33:09.346Z,98805.98
2019-05-20T21:36:08.044Z,98797.83
2019-05-20T21:39:11.610Z,98806.64
2019-05-20T21:42:14.991Z,98809.30
2019-05-20T21:45:18.454Z,98812.44
2019-05-20T21:48:22.122Z,98814.25
2019-05-20T21:51:25.534Z,98814.39
2019-05-20T21:54:28.962Z,98816.56
2019-05-20T21:57:32.394Z,98818.89
2019-05-20T22:00:45.935Z,98815.72
2019-05-20T22:03:50.407Z,98820.22
2019-05-20T22:06:54.938Z,98828.67
2019-05-20T22:09:58.453Z,98827.48
2019-05-20T22:13:01.954Z,98830.84
2019-05-20T22:16:05.465Z,98834.61
2019-05-20T22:19:10.990Z,98837.78
2019-05-20T22:22:29.267Z,98840.91
2019-05-20T22:25:32.760Z,98837.45
2019-05-20T22:28:37.264Z,98840.58
2019-05-20T22:31:40.687Z,98845.05
2019-05-20T22:34:53.095Z,98845.05
2019-05-20T22:37:50.467Z,98846.23
2019-05-20T22:40:53.950Z,98844.86
2019-05-20T22:43:57.439Z,98845.01
2019-05-20T22:47:01.969Z,98843.39
2019-05-20T22:50:05.479Z,98839.06
2019-05-20T22:53:10.123Z,98840.03
2019-05-20T22:56:13.691Z,98841.06
2019-05-20T22:59:17.182Z,98846.04
2019-05-20T23:02:20.727Z,98848.36
2019-05-20T23:05:25.216Z,98846.67
2019-05-20T23:08:28.739Z,98845.01
2019-05-20T23:11:37.963Z,98839.36
2019-05-20T23:14:42.486Z,98835.86
2019-05-20T23:17:45.990Z,98834.38
2019-05-20T23:20:49.472Z,98832.72
2019-05-20T23:23:52.979Z,98826.38
2019-05-20T23:26:57.529Z,98820.59
2019-05-20T23:30:01.027Z,98825.75
2019-05-20T23:33:04.523Z,98814.77
2019-05-20T23:36:08.005Z,98817.93
2019-05-20T23:39:11.534Z,98818.75
2019-05-20T23:42:14.940Z,98819.41
2019-05-20T23:45:19.090Z,98820.59
2019-05-20T23:48:22.655Z,98822.39
2019-05-20T23:51:28.166Z,98826.38
2019-05-20T23:54:31.703Z,98825.05
2019-05-20T23:57:35.158Z,98823.72
